Minerva Astra — 9HDW7 — position and weather

sailwx.info

Track history (hours):
 
Tides and Currents Weather Stations Pressure Air Temp Water Temp Dewpoint Dewpoint Depression Visibility Wind Speed Wind Dir Waves Ship Positions

Minerva Astra

Last reported at 2015-Apr-18 21:15 UTC. Time now 2015-Apr-19 03:09 UTC.
Position N 37°37' E 006°30'.

Length 248 m; draft 13 m.

Type: Tanker. MMSI: 256703000.

Date/timePositionNaut miles runAvg speedWind from/ knotsBaromVisibWave heightAir tempDewpointWater temp
2015-Apr-18 21:15N 37°37' E 006°30'3312.0
2015-Apr-18 18:28N 37°41' E 007°12'1312.5
2015-Apr-18 17:24N 37°43' E 007°29'1112.2
2015-Apr-18 16:31N 37°45' E 007°42'2512.0
2015-Apr-18 14:26N 37°48' E 008°13'1511.6
2015-Apr-18 13:09N 37°50' E 008°32'712.1
2015-Apr-18 12:33N 37°51' E 008°41'1212.5
2015-Apr-18 11:33N 37°53' E 008°57'1212.0
2015-Apr-18 10:33N 37°51' E 009°12'1111.5
2015-Apr-18 09:33N 37°49' E 009°26'1310.8
2015-Apr-18 08:21N 37°45' E 009°42'911.0
2015-Apr-18 07:30N 37°42' E 009°53'4510.9
2015-Apr-18 03:22N 37°32' E 010°49'3110.9
2015-Apr-18 00:29N 37°21' E 011°25'2311.4
2015-Apr-17 22:29N 37°09' E 011°50'1011.3
2015-Apr-17 21:33N 37°04' E 012°01'1111.4
2015-Apr-17 20:33N 36°60' E 012°15'1111.4
2015-Apr-17 19:33N 36°57' E 012°28'1211.6
2015-Apr-17 18:33N 36°53' E 012°42'1211.7
2015-Apr-17 17:33N 36°50' E 012°56'1211.7
2015-Apr-17 16:33N 36°47' E 013°10'1111.3
2015-Apr-17 15:33N 36°43' E 013°23'1211.2
2015-Apr-17 14:29N 36°40' E 013°38'1111.6
2015-Apr-17 13:33N 36°37' E 013°51'1211.6
2015-Apr-17 12:33N 36°33' E 014°04'1211.7
2015-Apr-17 11:33N 36°30' E 014°18'1211.4
2015-Apr-17 10:29N 36°27' E 014°33'1111.2
2015-Apr-17 09:32N 36°24' E 014°46'1111.5
2015-Apr-17 08:33N 36°20' E 014°59'1411.5
2015-Apr-17 07:18N 36°17' E 015°16'2011.3
2015-Apr-17 05:33N 36°13' E 015°40'7311.6
2015-Apr-16 23:15N 35°57' E 017°08'811.4
2015-Apr-16 22:33N 35°55' E 017°18'1311.1
2015-Apr-16 21:21N 35°52' E 017°34'910.8
2015-Apr-16 20:33N 35°50' E 017°44'  
2015-Apr-14 02:33N 34°20' E 032°39'1111.4
2015-Apr-14 01:33N 34°20' E 032°53'1110.7
2015-Apr-14 00:33N 34°22' E 033°05'1110.9
2015-Apr-13 23:33N 34°29' E 033°16'1 1.4
2015-Apr-13 22:33N 34°29' E 033°18'0 0.3
2015-Apr-13 21:33N 34°29' E 033°18'0 0.2
2015-Apr-13 20:33N 34°29' E 033°17'0 0.1
2015-Apr-13 19:33N 34°29' E 033°17'1 1.0
2015-Apr-13 18:33N 34°29' E 033°19'5 5.0
2015-Apr-13 17:33N 34°31' E 033°24'1 1.1
2015-Apr-13 16:33N 34°31' E 033°25'1 0.6
2015-Apr-13 15:33N 34°31' E 033°25'1 0.7
2015-Apr-13 14:33N 34°30' E 033°24'1 0.8
2015-Apr-13 13:33N 34°30' E 033°23'1 0.7
2015-Apr-13 12:33N 34°29' E 033°23'1 0.7
2015-Apr-13 11:33N 34°29' E 033°23'1 0.7
2015-Apr-13 10:33N 34°28' E 033°22'1 0.5
2015-Apr-13 09:33N 34°28' E 033°22'0 0.4
2015-Apr-13 08:33N 34°28' E 033°21'0 0.4
2015-Apr-13 07:33N 34°28' E 033°21'0 0.4
2015-Apr-13 06:33N 34°28' E 033°21'1 1.4
2015-Apr-13 05:33N 34°29' E 033°22'3 3.3
2015-Apr-13 04:33N 34°32' E 033°25'5 5.0
2015-Apr-13 03:33N 34°28' E 033°20'4 3.9
2015-Apr-13 02:33N 34°25' E 033°17'1 0.6
2015-Apr-13 01:32N 34°25' E 033°16'1 0.8
2015-Apr-13 00:29N 34°26' E 033°16'1 0.9
2015-Apr-12 23:32N 34°26' E 033°16'1 1.2
2015-Apr-12 22:33N 34°25' E 033°17'1 0.8
2015-Apr-12 21:33N 34°25' E 033°16'3 3.2
2015-Apr-12 20:33N 34°23' E 033°19'4 4.2
2015-Apr-12 19:33N 34°21' E 033°23'4 4.0
2015-Apr-12 18:27N 34°20' E 033°28'1 1.2
2015-Apr-12 17:33N 34°20' E 033°30'2 1.8
2015-Apr-12 16:32N 34°22' E 033°28'2 1.7
2015-Apr-12 15:33N 34°22' E 033°26'5 1.2
2015-Apr-12 11:25N 34°24' E 033°20'1 0.6
2015-Apr-12 10:33N 34°24' E 033°20'0 0.2
2015-Apr-12 09:33N 34°24' E 033°20'4 3.8
2015-Apr-12 08:33N 34°27' E 033°17'2 2.4
2015-Apr-12 07:33N 34°28' E 033°14'1 0.7
2015-Apr-12 06:33N 34°27' E 033°15'1 0.6
2015-Apr-12 05:33N 34°27' E 033°15'1 0.6
2015-Apr-12 04:33N 34°26' E 033°15'0 0.2
2015-Apr-12 03:33N 34°26' E 033°15'0 0.4
2015-Apr-12 02:33N 34°27' E 033°15'0 0.3
2015-Apr-12 01:33N 34°27' E 033°15'0 0.3
2015-Apr-12 00:33N 34°26' E 033°15'0 0.4
2015-Apr-11 23:33N 34°26' E 033°15'0 0.4
2015-Apr-11 22:33N 34°25' E 033°15'1 0.9
2015-Apr-11 21:34N 34°25' E 033°15'4 4.2
2015-Apr-11 20:33N 34°22' E 033°11'5 5.3
2015-Apr-11 19:33N 34°18' E 033°06'5 5.1
2015-Apr-11 18:33N 34°15' E 033°02'1 1.2
2015-Apr-11 17:33N 34°16' E 033°02'4 4.2
2015-Apr-11 16:31N 34°19' E 033°06'4 4.4
2015-Apr-11 15:33N 34°23' E 033°09'5 5.0
2015-Apr-11 14:34N 34°27' E 033°13'4 3.6
2015-Apr-11 13:34N 34°29' E 033°15'1 0.7
2015-Apr-11 12:32N 34°30' E 033°16'1 0.9
2015-Apr-11 11:32N 34°29' E 033°16'1 1.2
2015-Apr-11 10:33N 34°28' E 033°16'5 5.3
2015-Apr-11 09:33N 34°23' E 033°13'5 5.4
2015-Apr-11 08:33N 34°18' E 033°11'1 0.9
2015-Apr-11 07:31N 34°17' E 033°12'3 1.5
2015-Apr-11 05:31N 34°20' E 033°14'1 1.6
2015-Apr-11 04:34N 34°21' E 033°15'2 1.6
2015-Apr-11 03:34N 34°22' E 033°16'2 1.6
2015-Apr-11 02:31N 34°24' E 033°17'1 1.6
2015-Apr-11 01:34N 34°25' E 033°18'2 1.5
2015-Apr-11 00:31N 34°26' E 033°19'0 0.5
2015-Apr-10 23:33N 34°27' E 033°19'0 0.3
2015-Apr-10 22:31N 34°27' E 033°19'0 0.3
2015-Apr-10 21:31N 34°26' E 033°18'0 0.1
2015-Apr-10 20:34N 34°26' E 033°19'1 0.7
2015-Apr-10 19:28N 34°27' E 033°19'0 0.2
2015-Apr-10 18:25N 34°27' E 033°19'1 0.7
2015-Apr-10 17:22N 34°26' E 033°18'1 0.8
2015-Apr-10 16:25N 34°26' E 033°18'1 0.9
2015-Apr-10 15:34N 34°25' E 033°17'1 1.1
2015-Apr-10 14:31N 34°24' E 033°16'1 1.2
2015-Apr-10 13:34N 34°24' E 033°15'1 1.1
2015-Apr-10 12:31N 34°23' E 033°14'4 3.8
2015-Apr-10 11:33N 34°21' E 033°17'10 9.0
2015-Apr-10 10:30N 34°15' E 033°26'13 0.6
2015-Apr-09 12:18N 34°20' E 033°12'2 2.2
2015-Apr-09 11:33N 34°21' E 033°10'5 5.0
2015-Apr-09 10:29N 34°26' E 033°09'1111.8
2015-Apr-09 09:33N 34°37' E 033°06'5 5.0
2015-Apr-09 08:33N 34°36' E 033°12'1111.0
2015-Apr-09 07:33N 34°34' E 033°25'4 4.0
2015-Apr-09 06:29N 34°33' E 033°30'1 1.3
2015-Apr-09 05:33N 34°32' E 033°29'2 1.7
2015-Apr-09 04:33N 34°32' E 033°27'2 1.5
2015-Apr-09 03:33N 34°31' E 033°25'2 1.7
2015-Apr-09 02:33N 34°31' E 033°23'2 1.6
2015-Apr-09 01:33N 34°30' E 033°21'2 1.6
2015-Apr-09 00:33N 34°30' E 033°20'1 1.4
2015-Apr-08 23:33N 34°30' E 033°18'1 1.0
2015-Apr-08 22:33N 34°29' E 033°17'5 4.6
2015-Apr-08 21:33N 34°24' E 033°17'  
Track history (hours):
 
Tides and Currents Weather Stations Pressure Air Temp Water Temp Dewpoint Dewpoint Depression Visibility Wind Speed Wind Dir Waves Ship Positions

Minerva Astra

Last reported at 2015-Apr-18 21:15 UTC. Time now 2015-Apr-19 03:09 UTC.
Position N 37°37' E 006°30'.

Length 248 m; draft 13 m.

Type: Tanker. MMSI: 256703000.

Date/timePositionNaut miles runAvg speedWind from/ knotsBaromVisibWave heightAir tempDewpointWater temp
2015-Apr-18 21:15N 37°37' E 006°30'3312.0
2015-Apr-18 18:28N 37°41' E 007°12'1312.5
2015-Apr-18 17:24N 37°43' E 007°29'1112.2
2015-Apr-18 16:31N 37°45' E 007°42'2512.0
2015-Apr-18 14:26N 37°48' E 008°13'1511.6
2015-Apr-18 13:09N 37°50' E 008°32'712.1
2015-Apr-18 12:33N 37°51' E 008°41'1212.5
2015-Apr-18 11:33N 37°53' E 008°57'1212.0
2015-Apr-18 10:33N 37°51' E 009°12'1111.5
2015-Apr-18 09:33N 37°49' E 009°26'1310.8
2015-Apr-18 08:21N 37°45' E 009°42'911.0
2015-Apr-18 07:30N 37°42' E 009°53'4510.9
2015-Apr-18 03:22N 37°32' E 010°49'3110.9
2015-Apr-18 00:29N 37°21' E 011°25'2311.4
2015-Apr-17 22:29N 37°09' E 011°50'1011.3
2015-Apr-17 21:33N 37°04' E 012°01'1111.4
2015-Apr-17 20:33N 36°60' E 012°15'1111.4
2015-Apr-17 19:33N 36°57' E 012°28'1211.6
2015-Apr-17 18:33N 36°53' E 012°42'1211.7
2015-Apr-17 17:33N 36°50' E 012°56'1211.7
2015-Apr-17 16:33N 36°47' E 013°10'1111.3
2015-Apr-17 15:33N 36°43' E 013°23'1211.2
2015-Apr-17 14:29N 36°40' E 013°38'1111.6
2015-Apr-17 13:33N 36°37' E 013°51'1211.6
2015-Apr-17 12:33N 36°33' E 014°04'1211.7
2015-Apr-17 11:33N 36°30' E 014°18'1211.4
2015-Apr-17 10:29N 36°27' E 014°33'1111.2
2015-Apr-17 09:32N 36°24' E 014°46'1111.5
2015-Apr-17 08:33N 36°20' E 014°59'1411.5
2015-Apr-17 07:18N 36°17' E 015°16'2011.3
2015-Apr-17 05:33N 36°13' E 015°40'7311.6
2015-Apr-16 23:15N 35°57' E 017°08'811.4
2015-Apr-16 22:33N 35°55' E 017°18'1311.1
2015-Apr-16 21:21N 35°52' E 017°34'910.8
2015-Apr-16 20:33N 35°50' E 017°44'  
2015-Apr-14 02:33N 34°20' E 032°39'1111.4
2015-Apr-14 01:33N 34°20' E 032°53'1110.7
2015-Apr-14 00:33N 34°22' E 033°05'1110.9
2015-Apr-13 23:33N 34°29' E 033°16'1 1.4
2015-Apr-13 22:33N 34°29' E 033°18'0 0.3
2015-Apr-13 21:33N 34°29' E 033°18'0 0.2
2015-Apr-13 20:33N 34°29' E 033°17'0 0.1
2015-Apr-13 19:33N 34°29' E 033°17'1 1.0
2015-Apr-13 18:33N 34°29' E 033°19'5 5.0
2015-Apr-13 17:33N 34°31' E 033°24'1 1.1
2015-Apr-13 16:33N 34°31' E 033°25'1 0.6
2015-Apr-13 15:33N 34°31' E 033°25'1 0.7
2015-Apr-13 14:33N 34°30' E 033°24'1 0.8
2015-Apr-13 13:33N 34°30' E 033°23'1 0.7
2015-Apr-13 12:33N 34°29' E 033°23'1 0.7
2015-Apr-13 11:33N 34°29' E 033°23'1 0.7
2015-Apr-13 10:33N 34°28' E 033°22'1 0.5
2015-Apr-13 09:33N 34°28' E 033°22'0 0.4
2015-Apr-13 08:33N 34°28' E 033°21'0 0.4
2015-Apr-13 07:33N 34°28' E 033°21'0 0.4
2015-Apr-13 06:33N 34°28' E 033°21'1 1.4
2015-Apr-13 05:33N 34°29' E 033°22'3 3.3
2015-Apr-13 04:33N 34°32' E 033°25'5 5.0
2015-Apr-13 03:33N 34°28' E 033°20'4 3.9
2015-Apr-13 02:33N 34°25' E 033°17'1 0.6
2015-Apr-13 01:32N 34°25' E 033°16'1 0.8
2015-Apr-13 00:29N 34°26' E 033°16'1 0.9
2015-Apr-12 23:32N 34°26' E 033°16'1 1.2
2015-Apr-12 22:33N 34°25' E 033°17'1 0.8
2015-Apr-12 21:33N 34°25' E 033°16'3 3.2
2015-Apr-12 20:33N 34°23' E 033°19'4 4.2
2015-Apr-12 19:33N 34°21' E 033°23'4 4.0
2015-Apr-12 18:27N 34°20' E 033°28'1 1.2
2015-Apr-12 17:33N 34°20' E 033°30'2 1.8
2015-Apr-12 16:32N 34°22' E 033°28'2 1.7
2015-Apr-12 15:33N 34°22' E 033°26'5 1.2
2015-Apr-12 11:25N 34°24' E 033°20'1 0.6
2015-Apr-12 10:33N 34°24' E 033°20'0 0.2
2015-Apr-12 09:33N 34°24' E 033°20'4 3.8
2015-Apr-12 08:33N 34°27' E 033°17'2 2.4
2015-Apr-12 07:33N 34°28' E 033°14'1 0.7
2015-Apr-12 06:33N 34°27' E 033°15'1 0.6
2015-Apr-12 05:33N 34°27' E 033°15'1 0.6
2015-Apr-12 04:33N 34°26' E 033°15'0 0.2
2015-Apr-12 03:33N 34°26' E 033°15'0 0.4
2015-Apr-12 02:33N 34°27' E 033°15'0 0.3
2015-Apr-12 01:33N 34°27' E 033°15'0 0.3
2015-Apr-12 00:33N 34°26' E 033°15'0 0.4
2015-Apr-11 23:33N 34°26' E 033°15'0 0.4
2015-Apr-11 22:33N 34°25' E 033°15'1 0.9
2015-Apr-11 21:34N 34°25' E 033°15'4 4.2
2015-Apr-11 20:33N 34°22' E 033°11'5 5.3
2015-Apr-11 19:33N 34°18' E 033°06'5 5.1
2015-Apr-11 18:33N 34°15' E 033°02'1 1.2
2015-Apr-11 17:33N 34°16' E 033°02'4 4.2
2015-Apr-11 16:31N 34°19' E 033°06'4 4.4
2015-Apr-11 15:33N 34°23' E 033°09'5 5.0
2015-Apr-11 14:34N 34°27' E 033°13'4 3.6
2015-Apr-11 13:34N 34°29' E 033°15'1 0.7
2015-Apr-11 12:32N 34°30' E 033°16'1 0.9
2015-Apr-11 11:32N 34°29' E 033°16'1 1.2
2015-Apr-11 10:33N 34°28' E 033°16'5 5.3
2015-Apr-11 09:33N 34°23' E 033°13'5 5.4
2015-Apr-11 08:33N 34°18' E 033°11'1 0.9
2015-Apr-11 07:31N 34°17' E 033°12'3 1.5
2015-Apr-11 05:31N 34°20' E 033°14'1 1.6
2015-Apr-11 04:34N 34°21' E 033°15'2 1.6
2015-Apr-11 03:34N 34°22' E 033°16'2 1.6
2015-Apr-11 02:31N 34°24' E 033°17'1 1.6
2015-Apr-11 01:34N 34°25' E 033°18'2 1.5
2015-Apr-11 00:31N 34°26' E 033°19'0 0.5
2015-Apr-10 23:33N 34°27' E 033°19'0 0.3
2015-Apr-10 22:31N 34°27' E 033°19'0 0.3
2015-Apr-10 21:31N 34°26' E 033°18'0 0.1
2015-Apr-10 20:34N 34°26' E 033°19'1 0.7
2015-Apr-10 19:28N 34°27' E 033°19'0 0.2
2015-Apr-10 18:25N 34°27' E 033°19'1 0.7
2015-Apr-10 17:22N 34°26' E 033°18'1 0.8
2015-Apr-10 16:25N 34°26' E 033°18'1 0.9
2015-Apr-10 15:34N 34°25' E 033°17'1 1.1
2015-Apr-10 14:31N 34°24' E 033°16'1 1.2
2015-Apr-10 13:34N 34°24' E 033°15'1 1.1
2015-Apr-10 12:31N 34°23' E 033°14'4 3.8
2015-Apr-10 11:33N 34°21' E 033°17'10 9.0
2015-Apr-10 10:30N 34°15' E 033°26'13 0.6
2015-Apr-09 12:18N 34°20' E 033°12'2 2.2
2015-Apr-09 11:33N 34°21' E 033°10'5 5.0
2015-Apr-09 10:29N 34°26' E 033°09'1111.8
2015-Apr-09 09:33N 34°37' E 033°06'5 5.0
2015-Apr-09 08:33N 34°36' E 033°12'1111.0
2015-Apr-09 07:33N 34°34' E 033°25'4 4.0
2015-Apr-09 06:29N 34°33' E 033°30'1 1.3
2015-Apr-09 05:33N 34°32' E 033°29'2 1.7
2015-Apr-09 04:33N 34°32' E 033°27'2 1.5
2015-Apr-09 03:33N 34°31' E 033°25'2 1.7
2015-Apr-09 02:33N 34°31' E 033°23'2 1.6
2015-Apr-09 01:33N 34°30' E 033°21'2 1.6
2015-Apr-09 00:33N 34°30' E 033°20'1 1.4
2015-Apr-08 23:33N 34°30' E 033°18'1 1.0
2015-Apr-08 22:33N 34°29' E 033°17'5 4.6
2015-Apr-08 21:33N 34°24' E 033°17'  

Dump ship's entire track history